createdAt,value
2018-01-12T00:04:17.528Z,86.20
2018-01-12T00:09:19.277Z,86.20
2018-01-12T00:14:20.881Z,86.10
2018-01-12T00:19:22.418Z,84.70
2018-01-12T00:24:23.973Z,85.10
2018-01-12T00:29:26.340Z,85.70
2018-01-12T00:34:27.931Z,85.70
2018-01-12T00:39:29.453Z,86.30
2018-01-12T00:44:31.102Z,87.10
2018-01-12T00:49:32.664Z,87.20
2018-01-12T00:54:34.132Z,87.20
2018-01-12T00:59:35.780Z,87.60
2018-01-12T01:04:37.292Z,88.20
2018-01-12T01:09:38.875Z,87.90
2018-01-12T01:14:40.344Z,87.90
2018-01-12T01:19:41.943Z,88.00
2018-01-12T01:24:43.522Z,87.90
2018-01-12T01:29:45.116Z,87.70
2018-01-12T01:34:46.656Z,87.40
2018-01-12T01:39:48.206Z,86.80
2018-01-12T01:44:49.724Z,86.60
2018-01-12T01:49:51.229Z,86.90
2018-01-12T01:54:53.046Z,87.30
2018-01-12T01:59:54.550Z,88.10
2018-01-12T02:04:56.122Z,86.70
2018-01-12T02:09:57.689Z,86.70
2018-01-12T02:14:59.284Z,86.70
2018-01-12T02:20:01.652Z,86.00
2018-01-12T02:25:03.237Z,86.00
2018-01-12T02:30:05.524Z,86.50
2018-01-12T02:35:07.769Z,86.00
2018-01-12T02:40:09.234Z,85.90
2018-01-12T02:45:10.855Z,85.20
2018-01-12T02:50:13.173Z,83.80
2018-01-12T02:55:14.796Z,83.80
2018-01-12T03:00:17.049Z,86.90
2018-01-12T03:05:19.462Z,86.80
2018-01-12T03:10:21.014Z,88.00
2018-01-12T03:15:22.533Z,86.20
2018-01-12T03:20:24.123Z,85.80
2018-01-12T03:25:25.677Z,85.80
2018-01-12T03:30:27.230Z,85.40
2018-01-12T03:35:28.760Z,85.60
2018-01-12T03:40:30.322Z,85.80
2018-01-12T03:45:31.860Z,85.90
2018-01-12T03:50:33.365Z,86.80
2018-01-12T03:55:34.908Z,85.90
2018-01-12T04:00:36.430Z,85.80
2018-01-12T04:05:37.955Z,85.60
2018-01-12T04:10:39.638Z,85.90
2018-01-12T04:15:41.160Z,85.40
2018-01-12T04:20:42.631Z,85.80
2018-01-12T04:25:44.100Z,86.20
2018-01-12T04:30:45.665Z,86.30
2018-01-12T04:35:47.848Z,86.30
2018-01-12T04:40:49.303Z,86.30
2018-01-12T04:45:50.840Z,86.40
2018-01-12T04:50:53.088Z,85.40
2018-01-12T04:55:54.617Z,85.20
2018-01-12T05:00:56.203Z,84.90
2018-01-12T05:05:57.761Z,85.10
2018-01-12T05:10:59.314Z,85.90
2018-01-12T05:16:00.884Z,85.90
2018-01-12T05:21:02.465Z,86.90
2018-01-12T05:26:04.110Z,87.50
2018-01-12T05:31:06.405Z,88.00
2018-01-12T05:36:07.960Z,87.90
2018-01-12T05:41:10.245Z,88.30
2018-01-12T05:46:11.864Z,88.10
2018-01-12T05:51:13.383Z,88.40
2018-01-12T05:56:15.668Z,88.20
2018-01-12T06:01:36.427Z,88.00
2018-01-12T06:06:37.981Z,88.00
2018-01-12T06:11:39.689Z,88.50
2018-01-12T06:16:41.209Z,88.90
2018-01-12T06:21:42.722Z,89.00
2018-01-12T06:26:44.259Z,89.00
2018-01-12T06:31:45.869Z,88.70
2018-01-12T06:36:47.400Z,88.60
2018-01-12T06:41:48.910Z,88.10
2018-01-12T06:46:50.473Z,88.50
2018-01-12T06:51:51.993Z,88.70
2018-01-12T06:56:53.530Z,88.70
2018-01-12T07:01:55.790Z,88.30
2018-01-12T07:06:57.373Z,88.30
2018-01-12T07:11:58.937Z,88.10
2018-01-12T07:17:00.483Z,87.70
2018-01-12T07:22:20.541Z,87.90
2018-01-12T07:27:22.093Z,87.10
2018-01-12T07:32:24.585Z,87.00
2018-01-12T07:37:26.903Z,86.90
2018-01-12T07:42:28.425Z,86.80
2018-01-12T07:47:29.966Z,86.40
2018-01-12T07:52:31.528Z,86.30
2018-01-12T07:57:33.111Z,85.80
2018-01-12T08:02:40.683Z,86.00
2018-01-12T08:07:42.260Z,86.00
2018-01-12T08:12:43.788Z,85.90
2018-01-12T08:17:46.119Z,85.60
2018-01-12T08:22:47.639Z,85.50
2018-01-12T08:27:49.935Z,85.10
2018-01-12T08:32:52.292Z,84.80
2018-01-12T08:37:53.888Z,84.80
2018-01-12T08:42:56.164Z,84.50
2018-01-12T08:47:58.455Z,85.70
2018-01-12T08:53:00.765Z,84.60
2018-01-12T08:58:02.341Z,84.60
2018-01-12T09:03:03.867Z,83.70
2018-01-12T09:08:06.155Z,84.20
2018-01-12T09:13:26.783Z,84.10
2018-01-12T09:18:31.028Z,82.50
2018-01-12T09:23:32.548Z,82.50
2018-01-12T09:28:34.131Z,82.40
2018-01-12T09:33:35.832Z,81.90
2018-01-12T09:38:51.464Z,81.40
2018-01-12T09:43:53.072Z,81.70
2018-01-12T09:48:55.348Z,80.70
2018-01-12T09:53:56.883Z,80.60
2018-01-12T09:59:03.509Z,80.60
2018-01-12T10:04:05.872Z,78.80
2018-01-12T10:09:07.463Z,77.90
2018-01-12T10:14:08.995Z,78.50
2018-01-12T10:19:15.315Z,77.70
2018-01-12T10:24:17.802Z,79.30
2018-01-12T10:29:28.200Z,78.80
2018-01-12T10:34:43.512Z,77.80
2018-01-12T10:40:00.153Z,77.80
2018-01-12T10:45:01.841Z,78.50
2018-01-12T11:06:03.034Z,78.50
2018-01-12T11:11:05.244Z,78.30
2018-01-12T11:16:06.768Z,78.20
2018-01-12T11:21:08.218Z,78.60
2018-01-12T11:26:09.670Z,78.10
2018-01-12T11:31:11.232Z,78.20
2018-01-12T11:36:12.796Z,76.60
2018-01-12T11:41:14.390Z,76.90
2018-01-12T11:46:15.903Z,77.40
2018-01-12T11:51:17.425Z,77.30
2018-01-12T11:56:19.013Z,77.30
2018-01-12T12:01:21.341Z,76.50
2018-01-12T12:06:22.837Z,76.50
2018-01-12T12:11:24.388Z,76.50
2018-01-12T12:16:26.705Z,76.80
2018-01-12T12:21:28.262Z,76.80
2018-01-12T12:26:29.811Z,76.00
2018-01-12T12:31:31.444Z,76.80
2018-01-12T12:36:32.977Z,77.30
2018-01-12T12:41:34.545Z,76.70
2018-01-12T12:46:36.175Z,76.20
2018-01-12T12:51:37.725Z,76.90
2018-01-12T12:56:39.316Z,76.60
2018-01-12T13:01:40.840Z,77.40
2018-01-12T13:06:43.144Z,76.40
2018-01-12T13:11:44.681Z,76.40
2018-01-12T13:16:46.233Z,76.90
2018-01-12T13:21:47.860Z,75.90
2018-01-12T13:26:49.471Z,76.00
2018-01-12T13:31:51.058Z,75.60
2018-01-12T13:36:52.601Z,76.30
2018-01-12T13:41:54.365Z,76.50
2018-01-12T13:46:55.968Z,77.40
2018-01-12T13:51:57.481Z,77.20
2018-01-12T13:56:58.963Z,78.10
2018-01-12T14:02:00.626Z,77.70
2018-01-12T14:07:02.130Z,77.40
2018-01-12T14:12:04.448Z,79.00
2018-01-12T14:17:06.715Z,79.00
2018-01-12T14:22:08.280Z,79.00
2018-01-12T14:27:09.844Z,79.60
2018-01-12T14:32:11.400Z,79.50
2018-01-12T14:37:12.972Z,80.00
2018-01-12T14:42:14.525Z,78.90
2018-01-12T14:47:16.094Z,79.60
2018-01-12T14:52:17.581Z,78.40
2018-01-12T14:57:19.140Z,78.30
2018-01-12T15:02:20.668Z,78.80
2018-01-12T15:07:22.294Z,79.00
2018-01-12T15:12:24.612Z,79.80
2018-01-12T15:17:26.181Z,79.80
2018-01-12T15:22:27.847Z,80.40
2018-01-12T15:27:29.447Z,80.70
2018-01-12T15:32:31.012Z,80.90
2018-01-12T15:37:32.580Z,80.90
2018-01-12T15:42:34.240Z,81.30
2018-01-12T15:47:35.785Z,81.70
2018-01-12T15:52:38.085Z,81.70
2018-01-12T15:57:39.616Z,81.60
2018-01-12T16:02:41.928Z,81.80
2018-01-12T16:07:43.496Z,81.80
2018-01-12T16:12:45.094Z,81.80
2018-01-12T16:17:46.574Z,82.30
2018-01-12T16:22:48.876Z,82.80
2018-01-12T16:27:50.416Z,82.80
2018-01-12T16:32:51.979Z,82.70
2018-01-12T16:37:53.748Z,82.70
2018-01-12T16:42:55.283Z,82.90
2018-01-12T16:47:57.648Z,82.90
2018-01-12T16:52:59.214Z,82.90
2018-01-12T16:58:00.774Z,83.00
2018-01-12T17:03:03.002Z,82.80
2018-01-12T17:08:04.573Z,83.10
2018-01-12T17:13:06.199Z,83.10
2018-01-12T17:18:07.692Z,83.00
2018-01-12T17:23:17.133Z,83.00
2018-01-12T17:28:18.755Z,83.00
2018-01-12T17:33:20.275Z,82.80
2018-01-12T17:38:22.552Z,83.30
2018-01-12T17:43:24.053Z,82.20
2018-01-12T17:48:25.514Z,82.80
2018-01-12T17:53:27.053Z,83.40
2018-01-12T17:58:28.619Z,84.40
2018-01-12T18:03:30.281Z,84.90
2018-01-12T18:08:31.789Z,83.70
2018-01-12T18:13:33.335Z,82.50
2018-01-12T18:18:35.621Z,82.40
2018-01-12T18:23:37.976Z,81.90
2018-01-12T18:28:39.507Z,81.90
2018-01-12T18:33:41.044Z,82.30
2018-01-12T18:38:43.273Z,81.90
2018-01-12T18:43:44.888Z,81.80
2018-01-12T18:48:46.376Z,81.00
2018-01-12T18:53:47.825Z,81.30
2018-01-12T18:58:50.039Z,79.60
2018-01-12T19:03:51.582Z,79.60
2018-01-12T19:08:53.152Z,79.80
2018-01-12T19:13:55.354Z,80.20
2018-01-12T19:18:56.814Z,80.10
2018-01-12T19:23:58.333Z,80.60
2018-01-12T19:28:59.876Z,80.60
2018-01-12T19:34:01.536Z,81.00
2018-01-12T19:39:03.066Z,81.60
2018-01-12T19:44:04.655Z,81.60
2018-01-12T19:49:06.293Z,80.80
2018-01-12T19:54:08.644Z,81.30
2018-01-12T19:59:10.184Z,81.00
2018-01-12T20:04:11.800Z,80.50
2018-01-12T20:09:13.582Z,80.10
2018-01-12T20:14:15.452Z,79.40
2018-01-12T20:19:17.997Z,79.40
2018-01-12T20:24:19.667Z,79.30
2018-01-12T20:29:21.588Z,79.20
2018-01-12T20:34:23.259Z,79.10
2018-01-12T20:39:25.702Z,78.60
2018-01-12T20:44:27.516Z,77.60
2018-01-12T20:49:29.829Z,77.80
2018-01-12T20:54:31.448Z,77.70
2018-01-12T20:59:33.215Z,77.90
2018-01-12T21:04:34.814Z,77.70
2018-01-12T21:09:36.340Z,76.40
2018-01-12T21:14:37.855Z,76.50
2018-01-12T21:19:39.446Z,76.90
2018-01-12T21:24:40.999Z,76.90
2018-01-12T21:29:42.546Z,76.80
2018-01-12T21:34:44.130Z,77.40
2018-01-12T21:39:45.685Z,76.90
2018-01-12T21:44:47.243Z,77.20
2018-01-12T21:49:48.921Z,76.80
2018-01-12T21:54:50.893Z,77.40
2018-01-12T21:59:52.791Z,77.30
2018-01-12T22:04:54.325Z,77.40
2018-01-12T22:09:55.876Z,77.40
2018-01-12T22:14:58.215Z,78.30
2018-01-12T22:19:59.769Z,78.20
2018-01-12T22:25:01.461Z,77.90
2018-01-12T22:30:04.328Z,78.10
2018-01-12T22:35:06.163Z,77.90
2018-01-12T22:40:09.146Z,78.70
2018-01-12T22:45:11.924Z,78.60
2018-01-12T22:50:14.065Z,78.90
2018-01-12T22:55:16.528Z,79.30
2018-01-12T23:00:18.666Z,80.00
2018-01-12T23:05:20.933Z,80.70
2018-01-12T23:10:22.516Z,80.80
2018-01-12T23:15:25.710Z,81.00
2018-01-12T23:20:27.772Z,81.00
2018-01-12T23:25:30.671Z,80.90
2018-01-12T23:30:33.509Z,81.00
2018-01-12T23:35:36.356Z,81.00
2018-01-12T23:40:41.187Z,80.40
2018-01-12T23:45:42.762Z,80.40
2018-01-12T23:50:45.507Z,80.40
2018-01-12T23:55:47.033Z,80.50
